Time;durP1;ratioP1;P1;durP2;ratioP2;P2;SDS_P1;SDS_P2;PMS_P1;PMS_P2;Temp;Humidity;BMP_temperature;BMP_pressure;BME280_temperature;BME280_humidity;BME280_pressure;Samples;Min_cycle;Max_cycle;Signal;HPM_P1;HPM_P2
2022/07/24 00:01:44;;;;;;;32.50;20.20;;;;;;;19.58;75.30;98900.52;1355971;85;21022;-74
2022/07/24 00:03:45;;;;;;;31.35;20.08;;;;;;;19.57;75.35;98901.50;1354800;85;21121;-73
2022/07/24 00:05:47;;;;;;;33.98;20.02;;;;;;;19.56;75.38;98899.80;1350456;85;82621;-73
2022/07/24 00:07:48;;;;;;;27.13;20.65;;;;;;;19.56;75.41;98902.47;1353976;85;21129;-72
2022/07/24 00:09:49;;;;;;;27.37;20.32;;;;;;;19.54;75.46;98897.26;1353246;85;82128;-72
2022/07/24 00:11:50;;;;;;;31.05;20.70;;;;;;;19.53;75.49;98898.23;1356087;85;22338;-72
2022/07/24 00:13:51;;;;;;;33.83;20.92;;;;;;;19.52;75.52;98895.70;1354933;85;21851;-75
2022/07/24 00:15:52;;;;;;;34.75;23.98;;;;;;;19.52;75.53;98901.05;1352566;85;81074;-73
2022/07/24 00:17:53;;;;;;;40.08;22.05;;;;;;;19.50;75.54;98893.16;1351609;85;21034;-73
2022/07/24 00:19:54;;;;;;;35.58;23.42;;;;;;;19.48;75.56;98889.79;1352070;85;81417;-73
2022/07/24 00:21:57;;;;;;;34.15;21.62;;;;;;;19.47;75.61;98902.78;1352969;85;21052;-73
2022/07/24 00:23:58;;;;;;;28.70;21.50;;;;;;;19.32;75.62;98880.06;1353977;85;21169;-73
2022/07/24 00:25:59;;;;;;;34.70;22.15;;;;;;;19.46;75.64;98910.44;1354361;85;80961;-74
2022/07/24 00:28:00;;;;;;;32.25;22.20;;;;;;;19.45;75.67;98900.72;1339793;85;21106;-74
2022/07/24 00:30:04;;;;;;;39.53;23.73;;;;;;;19.43;75.70;98904.03;1352011;86;81166;-73
2022/07/24 00:32:07;;;;;;;30.05;20.97;;;;;;;19.43;75.75;98904.53;1354780;85;21062;-74
2022/07/24 00:34:08;;;;;;;42.40;23.55;;;;;;;19.42;75.76;98905.00;1356013;85;22153;-73
2022/07/24 00:36:09;;;;;;;31.70;23.52;;;;;;;19.40;75.76;98903.80;1352401;85;82523;-73
2022/07/24 00:38:10;;;;;;;38.48;24.15;;;;;;;19.38;75.79;98898.23;1352260;85;21435;-73
2022/07/24 00:40:13;;;;;;;30.25;23.50;;;;;;;19.37;75.83;98897.86;1352257;85;81260;-74
2022/07/24 00:42:14;;;;;;;35.92;22.70;;;;;;;19.36;75.91;98901.03;1354189;85;21027;-72
2022/07/24 00:44:16;;;;;;;33.30;22.48;;;;;;;19.38;75.94;98904.91;1357036;85;21114;-73
2022/07/24 00:46:19;;;;;;;32.93;23.10;;;;;;;19.37;75.99;98904.55;1342070;86;81189;-73
2022/07/24 00:48:20;;;;;;;37.70;22.90;;;;;;;19.36;76.00;98906.38;1353470;86;21090;-74
2022/07/24 00:50:21;;;;;;;32.15;23.45;;;;;;;19.36;76.03;98914.40;1351959;85;81909;-73
2022/07/24 00:52:22;;;;;;;37.60;24.10;;;;;;;19.36;76.03;98910.39;1335396;87;21071;-73
2022/07/24 00:54:24;;;;;;;33.15;23.65;;;;;;;19.35;76.06;98914.53;1352270;85;21502;-72
2022/07/24 00:56:27;;;;;;;34.50;23.80;;;;;;;19.35;76.08;98913.20;1350441;83;81720;-73
2022/07/24 00:58:28;;;;;;;37.50;24.27;;;;;;;19.34;76.12;98914.17;1354702;85;21102;-72
2022/07/24 01:00:30;;;;;;;31.33;23.95;;;;;;;19.33;76.15;98909.83;1350739;85;81979;-73
2022/07/24 01:02:31;;;;;;;27.25;23.73;;;;;;;19.32;76.20;98908.12;1354522;85;21100;-72
2022/07/24 01:04:32;;;;;;;33.10;23.77;;;;;;;19.19;76.20;98898.48;1355758;85;21058;-72
2022/07/24 01:06:33;;;;;;;42.83;24.02;;;;;;;19.28;76.24;98918.22;1352096;85;80936;-73
2022/07/24 01:08:36;;;;;;;38.60;25.30;;;;;;;19.27;76.29;98918.34;1356605;85;21079;-73
2022/07/24 01:10:39;;;;;;;37.67;25.48;;;;;;;19.24;76.28;98914.11;1351354;85;81969;-74
2022/07/24 01:12:41;;;;;;;37.40;25.48;;;;;;;19.22;76.32;98918.25;1354125;85;21010;-73
2022/07/24 01:14:42;;;;;;;39.20;24.92;;;;;;;19.20;76.35;98908.67;1352919;83;82286;-73
2022/07/24 01:16:43;;;;;;;37.75;25.92;;;;;;;19.19;76.36;98909.64;1338367;86;21581;-73
2022/07/24 01:18:44;;;;;;;39.70;26.10;;;;;;;19.16;76.39;98901.42;1353538;85;21034;-75
2022/07/24 01:20:47;;;;;;;40.05;26.12;;;;;;;19.14;76.41;98902.02;1353439;85;81965;-72
2022/07/24 01:22:48;;;;;;;46.33;26.33;;;;;;;19.14;76.43;98903.36;1354965;85;21664;-73
2022/07/24 01:24:50;;;;;;;49.53;28.62;;;;;;;19.12;76.46;98901.33;1353346;85;81246;-73
2022/07/24 01:26:51;;;;;;;45.15;28.57;;;;;;;19.12;76.52;98901.33;1354273;85;21066;-73
2022/07/24 01:28:52;;;;;;;44.25;27.98;;;;;;;19.02;76.51;98888.37;1355899;85;21003;-73
2022/07/24 01:30:53;;;;;;;39.60;29.18;;;;;;;19.11;76.55;98903.63;1354039;85;81562;-73
2022/07/24 01:32:55;;;;;;;45.35;29.82;;;;;;;19.09;76.57;98899.39;1355649;85;21061;-72
2022/07/24 01:34:56;;;;;;;41.40;29.85;;;;;;;19.10;76.57;98904.59;1354753;85;81239;-73
2022/07/24 01:36:57;;;;;;;40.00;28.95;;;;;;;19.09;76.61;98902.06;1353505;85;21022;-72
2022/07/24 01:38:58;;;;;;;45.58;31.57;;;;;;;19.06;76.63;98893.81;1357329;85;21077;-73
2022/07/24 01:41:00;;;;;;;45.83;31.70;;;;;;;19.05;76.64;98900.99;1353520;85;81848;-73
2022/07/24 01:43:01;;;;;;;48.17;32.88;;;;;;;19.05;76.69;98898.80;1354011;85;21121;-73
2022/07/24 01:45:03;;;;;;;42.40;31.00;;;;;;;19.04;76.71;98894.45;1352495;86;82127;-74
2022/07/24 01:47:04;;;;;;;42.67;31.40;;;;;;;19.02;76.69;98896.39;1332874;87;21654;-73
2022/07/24 01:49:05;;;;;;;45.60;31.07;;;;;;;19.00;76.71;98898.36;1356195;85;21085;-73
2022/07/24 01:51:06;;;;;;;45.08;29.98;;;;;;;18.98;76.70;98894.48;1352270;85;81762;-73
2022/07/24 01:53:07;;;;;;;42.88;29.20;;;;;;;18.95;76.80;98895.22;1352591;85;21062;-73
2022/07/24 01:55:08;;;;;;;49.33;29.40;;;;;;;18.94;76.81;98903.73;1349587;85;81190;-72
2022/07/24 01:57:09;;;;;;;39.13;30.50;;;;;;;18.92;76.82;98899.48;1355036;85;21050;-73
2022/07/24 01:59:10;;;;;;;39.70;30.77;;;;;;;18.91;76.87;98904.47;1353755;85;21554;-75
2022/07/24 02:01:12;;;;;;;35.50;28.40;;;;;;;18.91;76.86;98903.13;1353733;85;82182;-73
2022/07/24 02:03:13;;;;;;;39.78;30.82;;;;;;;18.89;76.92;98901.42;1354501;85;21015;-74
2022/07/24 02:05:14;;;;;;;40.40;30.50;;;;;;;18.88;76.88;98899.75;1349981;85;81811;-74
2022/07/24 02:07:16;;;;;;;37.35;29.60;;;;;;;18.87;76.90;98903.39;1355326;85;21121;-73
2022/07/24 02:09:16;;;;;;;38.78;29.48;;;;;;;18.87;76.90;98898.05;1354471;86;21549;-73
2022/07/24 02:11:18;;;;;;;38.65;29.18;;;;;;;18.86;76.90;98904.33;1353468;85;81047;-72
2022/07/24 02:13:20;;;;;;;38.58;30.97;;;;;;;18.85;76.91;98901.30;1353550;85;21581;-74
2022/07/24 02:15:21;;;;;;;43.70;31.30;;;;;;;18.84;76.88;98908.97;1350629;85;82467;-72
2022/07/24 02:17:22;;;;;;;48.65;32.28;;;;;;;18.83;76.92;98912.61;1353450;85;21047;-73
2022/07/24 02:19:24;;;;;;;45.12;31.37;;;;;;;18.81;76.92;98921.22;1354363;85;21090;-73
2022/07/24 02:21:25;;;;;;;41.60;30.80;;;;;;;18.79;77.01;98927.19;1350987;85;81113;-73
2022/07/24 02:23:26;;;;;;;41.28;30.08;;;;;;;18.78;76.99;98926.82;1355211;85;21137;-71
2022/07/24 02:25:28;;;;;;;38.55;30.35;;;;;;;18.75;77.01;98927.08;1349893;85;81078;-73
2022/07/24 02:27:29;;;;;;;37.15;30.10;;;;;;;18.73;77.06;98931.69;1355974;86;21624;-73
2022/07/24 02:29:30;;;;;;;46.55;30.48;;;;;;;18.71;76.96;98936.32;1355423;85;21034;-74
2022/07/24 02:31:31;;;;;;;44.93;33.00;;;;;;;18.70;76.97;98935.95;1351992;85;80931;-74
2022/07/24 02:33:33;;;;;;;47.95;32.90;;;;;;;18.69;76.99;98935.58;1358395;86;21057;-73
2022/07/24 02:35:34;;;;;;;42.35;34.27;;;;;;;18.67;76.97;98938.38;1351368;85;81963;-72
2022/07/24 02:37:40;;;;;;;41.25;32.38;;;;;;;18.66;77.00;98937.18;1352851;85;21054;-74
2022/07/24 02:39:41;;;;;;;46.15;34.48;;;;;;;18.65;77.05;98948.83;1353233;85;82415;-73
2022/07/24 02:41:42;;;;;;;56.98;33.92;;;;;;;18.64;77.11;98944.48;1353543;85;21058;-73
2022/07/24 02:43:43;;;;;;;39.38;32.48;;;;;;;18.63;77.16;98950.78;1354598;85;21102;-73
2022/07/24 02:45:44;;;;;;;42.75;28.83;;;;;;;18.61;77.17;98949.58;1351514;85;81954;-73
2022/07/24 02:47:50;;;;;;;34.05;27.40;;;;;;;18.59;77.14;98948.01;1353667;85;21704;-73
2022/07/24 02:49:51;;;;;;;32.58;27.02;;;;;;;18.58;77.13;98956.98;1352112;85;82239;-73
2022/07/24 02:51:52;;;;;;;35.63;26.57;;;;;;;18.57;77.09;98965.48;1355057;85;21149;-73
2022/07/24 02:53:53;;;;;;;41.73;28.70;;;;;;;18.57;77.05;98963.28;1355723;85;22153;-73
2022/07/24 02:55:55;;;;;;;35.80;28.32;;;;;;;18.56;77.07;98965.12;1353023;84;81240;-73
2022/07/24 02:57:56;;;;;;;36.68;28.45;;;;;;;18.55;77.09;98966.95;1355487;85;21031;-74
2022/07/24 02:59:57;;;;;;;36.03;26.62;;;;;;;18.55;77.09;98975.42;1351688;85;81958;-74
2022/07/24 03:01:58;;;;;;;33.25;25.85;;;;;;;18.53;77.06;98974.22;1355592;85;21011;-73
2022/07/24 03:03:59;;;;;;;40.40;29.15;;;;;;;18.52;77.04;98973.84;1353560;85;21059;-74
2022/07/24 03:06:00;;;;;;;33.65;28.17;;;;;;;18.51;77.02;98976.19;1352340;83;81794;-74
2022/07/24 03:08:04;;;;;;;33.15;26.05;;;;;;;18.53;77.07;98984.06;1356156;85;21079;-73
2022/07/24 03:10:09;;;;;;;43.30;29.75;;;;;;;18.53;77.11;98982.23;1352956;85;82106;-74
2022/07/24 03:12:10;;;;;;;32.58;24.55;;;;;;;18.56;77.15;98987.80;1355418;85;21079;-73
2022/07/24 03:14:11;;;;;;;29.67;25.45;;;;;;;18.52;77.12;98984.53;1355020;85;21087;-74
2022/07/24 03:16:12;;;;;;;33.83;28.02;;;;;;;18.55;77.04;98986.10;1350908;84;81994;-74
2022/07/24 03:18:13;;;;;;;35.68;27.30;;;;;;;18.54;77.05;98985.27;1354970;86;21060;-73
2022/07/24 03:20:14;;;;;;;30.20;26.35;;;;;;;18.53;77.04;98988.90;1352638;84;80999;-74
2022/07/24 03:22:15;;;;;;;31.70;26.57;;;;;;;18.52;77.06;98999.20;1357026;84;21090;-75
2022/07/24 03:24:16;;;;;;;34.92;23.30;;;;;;;18.49;77.07;98994.13;1341401;87;21221;-74
2022/07/24 03:26:18;;;;;;;25.82;23.20;;;;;;;18.47;77.03;98999.22;1355761;84;82089;-73
2022/07/24 03:28:19;;;;;;;27.93;22.90;;;;;;;18.43;77.01;99003.11;1353539;85;22386;-74
2022/07/24 03:30:20;;;;;;;30.80;23.67;;;;;;;18.40;76.98;99001.56;1352040;84;81939;-75
2022/07/24 03:32:22;;;;;;;26.77;22.70;;;;;;;18.37;76.99;99000.45;1333865;86;25767;-72
2022/07/24 03:34:23;;;;;;;28.30;22.22;;;;;;;18.34;76.98;99000.70;1355109;85;21208;-73
2022/07/24 03:36:26;;;;;;;25.55;20.57;;;;;;;18.31;76.99;99001.79;1355250;84;81873;-73
2022/07/24 03:38:27;;;;;;;22.62;19.10;;;;;;;18.30;76.94;99001.91;1354096;85;21087;-74
2022/07/24 03:40:28;;;;;;;25.57;20.25;;;;;;;18.26;76.91;98995.97;1353428;84;81784;-75
2022/07/24 03:42:29;;;;;;;25.37;18.80;;;;;;;18.25;76.93;99012.09;1337330;87;20972;-73
2022/07/24 03:44:31;;;;;;;24.80;20.30;;;;;;;18.23;76.88;99004.72;1355944;85;21042;-73
2022/07/24 03:46:32;;;;;;;24.82;18.90;;;;;;;18.23;76.87;99003.38;1349344;85;82267;-75
2022/07/24 03:48:33;;;;;;;21.75;18.42;;;;;;;18.19;76.88;99003.64;1354437;86;21058;-73
2022/07/24 03:50:34;;;;;;;22.40;19.37;;;;;;;18.17;76.91;99004.23;1350969;84;81851;-73
2022/07/24 03:52:35;;;;;;;27.45;20.30;;;;;;;18.16;76.88;99013.19;1347454;85;21143;-73
2022/07/24 03:54:36;;;;;;;26.45;20.88;;;;;;;18.15;76.89;99022.19;1365757;84;82417;-73
2022/07/24 03:56:37;;;;;;;25.30;20.70;;;;;;;18.14;76.88;99016.48;1367612;84;21684;-75
2022/07/24 03:58:38;;;;;;;22.22;19.32;;;;;;;18.14;76.90;99018.31;1369983;84;21053;-73
2022/07/24 04:00:40;;;;;;;25.43;19.92;;;;;;;18.14;76.89;99026.31;1367266;84;81155;-73
2022/07/24 04:02:41;;;;;;;28.00;19.92;;;;;;;18.14;76.90;99035.16;1365896;84;21120;-73
2022/07/24 04:04:42;;;;;;;32.25;21.50;;;;;;;18.13;76.92;99031.28;1366365;82;82522;-73
2022/07/24 04:06:43;;;;;;;27.67;21.87;;;;;;;18.14;76.97;99028.98;1369713;84;20987;-73
2022/07/24 04:08:46;;;;;;;25.97;22.48;;;;;;;18.14;77.07;99032.48;1369095;84;21037;-73
2022/07/24 04:10:48;;;;;;;24.55;21.75;;;;;;;18.00;77.11;99009.56;1366089;84;81026;-73
2022/07/24 04:12:49;;;;;;;27.40;22.58;;;;;;;18.17;77.16;99035.41;1367475;84;20995;-73
2022/07/24 04:14:50;;;;;;;27.98;21.52;;;;;;;18.18;77.22;99041.95;1369888;84;81176;-73
2022/07/24 04:16:51;;;;;;;28.02;22.37;;;;;;;18.19;77.31;99038.31;1367966;84;21053;-74
2022/07/24 04:18:52;;;;;;;23.85;18.00;;;;;;;18.21;77.32;99044.36;1367635;84;21066;-74
2022/07/24 04:20:54;;;;;;;25.25;18.17;;;;;;;18.23;77.20;99046.07;1365619;83;82189;-73
2022/07/24 04:22:55;;;;;;;30.25;19.50;;;;;;;18.24;77.13;99044.61;1367764;84;21731;-74
2022/07/24 04:24:55;;;;;;;25.05;19.67;;;;;;;18.24;77.07;99046.45;1362368;83;81236;-74
2022/07/24 04:26:57;;;;;;;25.45;18.42;;;;;;;18.25;77.09;99041.45;1366731;84;21597;-73
2022/07/24 04:28:58;;;;;;;25.32;17.75;;;;;;;18.26;77.12;99053.33;1369138;83;21354;-73
2022/07/24 04:30:59;;;;;;;19.90;17.35;;;;;;;18.27;77.07;99059.03;1365044;84;81785;-73
2022/07/24 04:33:00;;;;;;;21.23;15.72;;;;;;;18.29;77.05;99065.12;1368116;84;21077;-72
2022/07/24 04:35:01;;;;;;;23.10;17.40;;;;;;;18.31;77.01;99064.99;1364819;83;81064;-73
2022/07/24 04:37:02;;;;;;;23.45;17.30;;;;;;;18.33;77.01;99068.38;1367281;84;21065;-73
2022/07/24 04:39:03;;;;;;;22.90;15.68;;;;;;;18.36;77.10;99070.33;1364386;84;21053;-73
2022/07/24 04:41:05;;;;;;;16.95;15.20;;;;;;;18.40;77.09;99076.28;1365645;82;82260;-73
2022/07/24 04:43:06;;;;;;;18.15;15.08;;;;;;;18.41;76.99;99081.96;1367815;84;20994;-73
2022/07/24 04:45:11;;;;;;;23.98;16.30;;;;;;;18.45;76.94;99078.58;1365859;84;82056;-74
2022/07/24 04:47:12;;;;;;;17.85;15.50;;;;;;;18.46;76.96;99081.13;1368500;84;21766;-73
2022/07/24 04:49:13;;;;;;;17.52;15.72;;;;;;;18.48;76.92;99080.50;1344199;86;21025;-73
2022/07/24 04:51:14;;;;;;;22.00;16.05;;;;;;;18.49;76.89;99077.36;1355402;85;82200;-73
2022/07/24 04:53:15;;;;;;;26.57;15.05;;;;;;;18.52;76.78;99080.62;1354270;84;21522;-73
2022/07/24 04:55:16;;;;;;;19.12;14.98;;;;;;;18.52;76.79;99073.95;1352704;84;81889;-73
2022/07/24 04:57:17;;;;;;;22.60;15.05;;;;;;;18.55;76.84;99080.40;1353152;85;21767;-73
2022/07/24 04:59:18;;;;;;;23.30;15.48;;;;;;;18.58;76.82;99079.77;1355525;85;21118;-74
2022/07/24 05:01:19;;;;;;;18.40;15.43;;;;;;;18.59;76.83;99079.65;1350103;85;81030;-74
2022/07/24 05:03:20;;;;;;;19.17;15.20;;;;;;;18.62;76.80;99078.55;1329639;85;21066;-73
2022/07/24 05:05:21;;;;;;;22.60;14.55;;;;;;;18.64;76.83;99073.96;1353491;84;81790;-73
2022/07/24 05:07:22;;;;;;;16.60;14.25;;;;;;;18.66;76.81;99078.67;1354733;85;21614;-73
2022/07/24 05:09:23;;;;;;;18.65;13.98;;;;;;;18.67;76.77;99082.55;1354466;85;21007;-73
2022/07/24 05:11:24;;;;;;;21.80;14.03;;;;;;;18.70;76.84;99085.47;1350429;85;81042;-74
2022/07/24 05:13:26;;;;;;;20.70;12.65;;;;;;;18.72;76.82;99080.88;1353042;85;21082;-73
2022/07/24 05:15:27;;;;;;;13.98;12.20;;;;;;;18.74;76.73;99082.08;1358547;85;81979;-73
2022/07/24 05:17:28;;;;;;;14.43;12.60;;;;;;;18.75;76.56;99085.95;1339294;85;21589;-73
2022/07/24 05:19:29;;;;;;;15.00;11.97;;;;;;;18.75;76.51;99084.63;1351747;85;21022;-73
2022/07/24 05:21:29;;;;;;;;;;;;;;;18.79;76.50;99090.55;1355014;85;80920;-74
2022/07/24 05:23:31;;;;;;;15.63;11.85;;;;;;;18.81;76.50;99085.94;1356072;85;20307;-73
2022/07/24 05:25:31;;;;;;;;;;;;;;;18.80;76.46;99082.44;1356007;85;81127;-73
2022/07/24 05:27:32;;;;;;;19.30;11.63;;;;;;;18.82;76.38;99084.98;1355934;85;20525;-74
2022/07/24 05:29:33;;;;;;;;;;;;;;;18.81;76.38;99082.77;1356653;85;21070;-74
2022/07/24 05:31:34;;;;;;;12.78;10.48;;;;;;;18.83;76.30;99085.31;1351060;84;67668;-72
2022/07/24 05:33:35;;;;;;;14.00;10.68;;;;;;;18.83;76.28;99084.85;1352832;84;21656;-74
2022/07/24 05:35:36;;;;;;;18.27;11.33;;;;;;;18.86;76.22;99091.27;1352607;85;81096;-74
2022/07/24 05:37:37;;;;;;;11.93;10.75;;;;;;;18.88;76.20;99089.38;1354765;85;21099;-73
2022/07/24 05:39:38;;;;;;;14.45;10.70;;;;;;;18.91;76.21;99083.41;1353934;83;82317;-74
2022/07/24 05:41:39;;;;;;;12.00;10.15;;;;;;;18.94;76.09;99089.83;1354998;85;22531;-73
2022/07/24 05:43:40;;;;;;;16.00;10.00;;;;;;;18.96;76.03;99086.06;1351747;85;21133;-73
2022/07/24 05:45:41;;;;;;;9.30;8.40;;;;;;;18.99;75.99;99091.65;1350232;85;81069;-74
2022/07/24 05:47:42;;;;;;;10.13;8.95;;;;;;;19.02;75.82;99092.72;1354027;85;21098;-74
2022/07/24 05:49:44;;;;;;;9.23;8.08;;;;;;;19.04;75.79;99089.45;1351438;84;81163;-73
2022/07/24 05:51:45;;;;;;;12.55;8.55;;;;;;;19.08;75.70;99097.59;1353331;85;22434;-73
2022/07/24 05:53:46;;;;;;;13.85;8.58;;;;;;;19.11;75.71;99095.98;1367708;84;21131;-73
2022/07/24 05:55:47;;;;;;;6.53;5.90;;;;;;;19.14;75.67;99091.72;1363413;84;81558;-73
2022/07/24 05:57:48;;;;;;;12.13;7.40;;;;;;;19.19;75.57;99096.21;1362539;85;21071;-74
2022/07/24 05:59:49;;;;;;;8.90;7.00;;;;;;;19.23;75.39;99097.66;1365743;84;81598;-73
2022/07/24 06:01:50;;;;;;;15.65;7.03;;;;;;;19.30;75.35;99105.16;1364813;84;21064;-73
2022/07/24 06:03:52;;;;;;;9.75;6.15;;;;;;;19.31;75.13;99093.50;1364771;84;21075;-73
2022/07/24 06:05:53;;;;;;;5.42;4.67;;;;;;;19.38;74.91;99102.70;1366832;83;81521;-74
2022/07/24 06:07:54;;;;;;;10.70;4.80;;;;;;;19.42;74.65;99105.48;1366517;84;21575;-74
2022/07/24 06:09:54;;;;;;;6.75;4.85;;;;;;;19.44;74.59;99102.20;1364128;84;81973;-74
2022/07/24 06:11:56;;;;;;;7.30;4.85;;;;;;;19.47;74.36;99106.45;1368133;84;21053;-74
2022/07/24 06:13:57;;;;;;;9.90;5.10;;;;;;;19.50;74.20;99103.02;1369022;84;21753;-74
2022/07/24 06:15:58;;;;;;;5.10;3.80;;;;;;;19.54;74.12;99107.13;1365072;84;81826;-75
2022/07/24 06:17:59;;;;;;;5.28;4.12;;;;;;;19.57;73.64;99111.38;1367356;84;21078;-74
2022/07/24 06:20:00;;;;;;;4.75;3.50;;;;;;;19.63;73.31;99108.67;1397353;83;82019;-73
2022/07/24 06:22:02;;;;;;;5.87;3.87;;;;;;;19.67;72.82;99115.47;1366979;84;21064;-74
2022/07/24 06:24:03;;;;;;;4.33;3.70;;;;;;;19.68;72.61;99118.00;1364552;84;21666;-74
2022/07/24 06:26:04;;;;;;;7.10;3.70;;;;;;;19.69;72.51;99112.19;1364666;84;80778;-74
2022/07/24 06:28:05;;;;;;;8.70;3.27;;;;;;;19.72;72.63;99110.59;1364179;84;21568;-74
2022/07/24 06:30:09;;;;;;;10.72;3.80;;;;;;;19.74;72.49;99110.82;1364166;84;80697;-74
2022/07/24 06:32:10;;;;;;;9.03;3.72;;;;;;;19.78;72.36;99112.73;1368462;84;21029;-74
2022/07/24 06:34:11;;;;;;;6.25;3.12;;;;;;;19.81;71.91;99116.50;1365667;85;21622;-74
2022/07/24 06:36:12;;;;;;;4.22;3.50;;;;;;;19.83;71.30;99107.88;1364811;84;81514;-74
2022/07/24 06:38:12;;;;;;;4.35;3.33;;;;;;;19.86;71.41;99120.98;1368990;84;21734;-73
2022/07/24 06:40:16;;;;;;;6.28;2.77;;;;;;;19.88;71.51;99120.38;1365905;85;81394;-76
2022/07/24 06:42:17;;;;;;;5.08;2.60;;;;;;;19.92;71.18;99121.45;1363314;86;21646;-77
2022/07/24 06:44:18;;;;;;;3.12;2.90;;;;;;;19.94;70.46;99122.16;1367549;84;21212;-77
2022/07/24 06:46:19;;;;;;;9.18;3.30;;;;;;;19.98;70.23;99112.89;1368315;84;81405;-76
2022/07/24 06:48:20;;;;;;;5.90;3.20;;;;;;;19.98;70.15;99115.09;1369169;84;21028;-74
2022/07/24 06:50:22;;;;;;;5.47;3.00;;;;;;;20.01;70.10;99117.50;1366242;83;80654;-74
2022/07/24 06:52:23;;;;;;;7.83;3.33;;;;;;;20.02;70.21;99123.69;1365624;85;21150;-75
2022/07/24 06:54:24;;;;;;;5.87;2.80;;;;;;;20.06;70.19;99118.44;1368887;84;21071;-76
2022/07/24 06:56:25;;;;;;;3.40;2.95;;;;;;;20.11;70.01;99124.75;1368113;84;80668;-75
2022/07/24 06:58:26;;;;;;;7.20;2.55;;;;;;;20.13;69.41;99118.30;1365234;85;21040;-74
2022/07/24 07:00:27;;;;;;;4.35;2.65;;;;;;;20.16;68.97;99118.49;1365700;84;81455;-75
2022/07/24 07:02:28;;;;;;;6.90;3.10;;;;;;;20.16;68.34;99115.34;1363847;85;21055;-76
2022/07/24 07:04:29;;;;;;;4.80;3.22;;;;;;;20.19;68.92;99121.77;1365754;84;20993;-74
2022/07/24 07:06:30;;;;;;;3.52;2.72;;;;;;;20.20;69.15;99116.78;1366787;84;81423;-74
2022/07/24 07:08:31;;;;;;;3.42;3.05;;;;;;;20.24;69.26;99122.70;1366008;84;21136;-74
2022/07/24 07:10:32;;;;;;;7.70;3.10;;;;;;;20.29;69.11;99119.14;1362973;85;81904;-74
2022/07/24 07:12:33;;;;;;;7.67;2.80;;;;;;;20.35;68.89;99124.45;1356897;85;21107;-73
2022/07/24 07:14:34;;;;;;;8.68;2.50;;;;;;;20.42;68.48;99121.59;1356997;85;21511;-73
2022/07/24 07:16:35;;;;;;;2.67;2.47;;;;;;;20.48;68.33;99124.22;1353203;85;81342;-75
2022/07/24 07:18:36;;;;;;;3.98;2.58;;;;;;;20.52;68.47;99126.52;1335234;86;21393;-73
2022/07/24 07:20:37;;;;;;;3.12;2.40;;;;;;;20.57;68.27;99126.98;1363586;83;80727;-74
2022/07/24 07:22:39;;;;;;;5.22;2.83;;;;;;;20.60;67.80;99127.17;1370853;84;21016;-72
2022/07/24 07:24:40;;;;;;;5.65;2.50;;;;;;;20.64;67.95;99133.95;1366031;85;81954;-72
2022/07/24 07:26:41;;;;;;;6.67;2.70;;;;;;;20.67;67.55;99130.16;1368917;84;20985;-74
2022/07/24 07:28:42;;;;;;;2.70;2.50;;;;;;;20.70;67.25;99136.61;1367168;84;21634;-73
2022/07/24 07:30:43;;;;;;;5.62;2.95;;;;;;;20.72;66.75;99131.48;1364962;84;81398;-73
2022/07/24 07:32:45;;;;;;;3.45;2.52;;;;;;;20.74;66.27;99133.55;1366470;84;21040;-74
2022/07/24 07:34:45;;;;;;;3.42;2.60;;;;;;;20.78;65.78;99139.47;1363733;83;82310;-73
2022/07/24 07:36:46;;;;;;;5.35;2.90;;;;;;;20.83;66.39;99132.38;1368498;84;21027;-73
2022/07/24 07:38:47;;;;;;;7.58;2.60;;;;;;;20.85;66.36;99131.27;1369840;84;21036;-73
2022/07/24 07:40:48;;;;;;;9.75;2.77;;;;;;;20.86;66.52;99128.92;1367616;84;81845;-73
2022/07/24 07:42:49;;;;;;;5.20;2.70;;;;;;;20.89;66.62;99132.69;1366319;84;21066;-74
2022/07/24 07:44:50;;;;;;;7.67;2.75;;;;;;;20.94;66.52;99137.63;1365575;84;81855;-74
2022/07/24 07:46:52;;;;;;;7.10;3.05;;;;;;;20.97;65.87;99133.83;1366266;84;21032;-73
2022/07/24 07:48:54;;;;;;;5.65;2.70;;;;;;;21.00;66.23;99136.23;1366897;84;21016;-73
2022/07/24 07:50:55;;;;;;;5.78;3.08;;;;;;;21.03;66.03;99134.61;1366417;84;80689;-73
2022/07/24 07:52:55;;;;;;;5.42;3.10;;;;;;;21.08;66.22;99134.55;1366882;84;21615;-72
2022/07/24 07:54:57;;;;;;;3.33;2.67;;;;;;;21.15;66.30;99136.20;1366746;84;81192;-73
2022/07/24 07:56:58;;;;;;;9.28;2.98;;;;;;;21.23;66.04;99135.52;1366154;84;21087;-73
2022/07/24 07:58:59;;;;;;;3.45;2.85;;;;;;;21.33;65.72;99138.21;1370671;84;21040;-74
2022/07/24 08:01:00;;;;;;;7.53;2.87;;;;;;;21.40;65.47;99131.30;1367055;84;80761;-74
2022/07/24 08:03:02;;;;;;;11.75;3.02;;;;;;;21.44;64.93;99135.40;1364932;83;21094;-74
2022/07/24 08:05:03;;;;;;;3.42;2.62;;;;;;;21.44;65.10;99144.78;1363893;84;80826;-74
2022/07/24 08:07:04;;;;;;;6.60;3.35;;;;;;;21.46;65.03;99144.17;1369273;84;21059;-74
2022/07/24 08:09:06;;;;;;;3.67;2.67;;;;;;;21.50;64.64;99148.73;1370967;84;21064;-75
2022/07/24 08:11:08;;;;;;;8.40;3.87;;;;;;;21.55;63.89;99147.36;1367997;84;80876;-73
2022/07/24 08:13:09;;;;;;;3.12;2.83;;;;;;;21.58;64.48;99148.41;1368537;85;21618;-73
2022/07/24 08:15:11;;;;;;;11.08;4.20;;;;;;;21.62;64.30;99144.13;1367712;84;81492;-74
2022/07/24 08:17:12;;;;;;;5.37;2.85;;;;;;;21.67;64.07;99151.24;1369217;84;20994;-74
2022/07/24 08:19:13;;;;;;;10.40;3.42;;;;;;;21.69;63.84;99145.25;1367300;84;21666;-73
2022/07/24 08:21:15;;;;;;;5.70;3.08;;;;;;;21.67;63.87;99149.90;1364895;84;82143;-73
2022/07/24 08:23:16;;;;;;;4.35;3.08;;;;;;;21.64;63.98;99148.37;1368862;84;21047;-73
2022/07/24 08:25:17;;;;;;;11.25;3.45;;;;;;;21.63;63.94;99149.83;1364355;84;81390;-74
2022/07/24 08:27:18;;;;;;;5.58;2.60;;;;;;;21.68;64.06;99155.63;1368255;84;21616;-73
2022/07/24 08:29:19;;;;;;;10.32;2.60;;;;;;;21.73;63.87;99142.64;1366641;85;21098;-73
2022/07/24 08:31:20;;;;;;;3.60;3.17;;;;;;;21.81;63.78;99146.81;1364466;83;80950;-73
2022/07/24 08:33:21;;;;;;;8.00;2.98;;;;;;;21.91;63.49;99144.12;1368782;84;21515;-73
2022/07/24 08:35:23;;;;;;;4.10;2.92;;;;;;;21.94;63.14;99153.22;1368353;84;81510;-73
2022/07/24 08:37:24;;;;;;;3.87;3.33;;;;;;;22.02;63.07;99151.17;1369266;84;21040;-73
2022/07/24 08:39:25;;;;;;;3.40;3.20;;;;;;;22.15;63.32;99150.36;1363694;85;21025;-74
2022/07/24 08:41:32;;;;;;;3.67;3.33;;;;;;;22.28;62.80;99149.56;1367518;84;81219;-74
2022/07/24 08:43:32;;;;;;;5.03;3.00;;;;;;;22.38;62.85;99154.94;1370917;84;21025;-73
2022/07/24 08:45:38;;;;;;;4.25;2.80;;;;;;;22.41;62.64;99151.12;1364467;83;80775;-73
2022/07/24 08:47:41;;;;;;;5.55;2.90;;;;;;;22.36;62.61;99160.97;1370194;84;21174;-73
2022/07/24 08:49:45;;;;;;;4.15;3.00;;;;;;;22.31;62.50;99161.02;1366937;84;80981;-75
2022/07/24 08:51:49;;;;;;;4.20;2.87;;;;;;;22.35;62.16;99158.43;1367938;84;21000;-73
2022/07/24 08:53:50;;;;;;;6.53;2.67;;;;;;;22.44;62.31;99163.78;1367726;84;21590;-73
2022/07/24 08:55:51;;;;;;;6.35;2.92;;;;;;;22.59;62.41;99155.23;1365859;84;80754;-73
2022/07/24 08:57:53;;;;;;;4.05;2.60;;;;;;;22.72;61.79;99147.70;1365649;85;22351;-73
2022/07/24 08:59:54;;;;;;;5.28;2.75;;;;;;;22.88;61.35;99151.59;1366122;84;81093;-73
2022/07/24 09:01:55;;;;;;;2.98;2.72;;;;;;;23.02;61.51;99147.55;1369582;84;21000;-73
2022/07/24 09:03:56;;;;;;;5.80;2.70;;;;;;;23.17;60.50;99155.48;1369321;84;21698;-71
2022/07/24 09:05:59;;;;;;;6.70;2.92;;;;;;;23.31;61.18;99149.26;1368839;84;81506;-71
2022/07/24 09:08:09;;;;;;;2.85;2.65;;;;;;;23.46;61.01;99153.11;1369307;84;20961;-74
2022/07/24 09:10:13;;;;;;;4.78;2.58;;;;;;;23.56;59.92;99151.18;1364531;84;81468;-75
2022/07/24 09:12:17;;;;;;;3.80;2.62;;;;;;;23.64;59.11;99151.27;1369198;84;21662;-72
2022/07/24 09:14:29;;;;;;;3.10;2.45;;;;;;;23.69;59.45;99153.99;1371529;84;21052;-71
2022/07/24 09:16:33;;;;;;;5.70;2.40;;;;;;;23.68;59.53;99154.50;1363694;84;80696;-72
2022/07/24 09:18:34;;;;;;;7.35;2.67;;;;;;;23.71;59.47;99160.08;1356618;85;21076;-74
2022/07/24 09:20:38;;;;;;;3.92;2.90;;;;;;;23.76;58.74;99160.44;1334269;87;81563;-72
2022/07/24 09:22:41;;;;;;;7.08;3.00;;;;;;;23.80;59.13;99162.69;1367547;84;21772;-72
2022/07/24 09:24:42;;;;;;;3.52;2.40;;;;;;;23.92;59.26;99162.48;1353005;85;81004;-73